sensor_id;sensor_type;location;lat;lon;timestamp;temperature;humidity
49242;DHT22;35079;52.704;13.814;2022-07-24T00:01:07;14.20;99.90
49242;DHT22;35079;52.704;13.814;2022-07-24T00:03:33;14.20;99.90
49242;DHT22;35079;52.704;13.814;2022-07-24T00:05:59;14.20;99.90
49242;DHT22;35079;52.704;13.814;2022-07-24T00:08:24;14.10;99.90
49242;DHT22;35079;52.704;13.814;2022-07-24T00:10:50;14.00;99.90
49242;DHT22;35079;52.704;13.814;2022-07-24T00:13:15;13.90;99.90
49242;DHT22;35079;52.704;13.814;2022-07-24T00:15:41;13.80;99.90
49242;DHT22;35079;52.704;13.814;2022-07-24T00:18:07;13.80;99.90
49242;DHT22;35079;52.704;13.814;2022-07-24T00:20:33;13.80;99.90
49242;DHT22;35079;52.704;13.814;2022-07-24T00:22:58;13.60;99.90
49242;DHT22;35079;52.704;13.814;2022-07-24T00:25:24;13.60;99.90
49242;DHT22;35079;52.704;13.814;2022-07-24T00:27:49;13.60;99.90
49242;DHT22;35079;52.704;13.814;2022-07-24T00:30:15;13.70;99.90
49242;DHT22;35079;52.704;13.814;2022-07-24T00:32:41;13.70;99.90
49242;DHT22;35079;52.704;13.814;2022-07-24T00:35:07;13.70;99.90
49242;DHT22;35079;52.704;13.814;2022-07-24T00:37:32;13.70;99.90
49242;DHT22;35079;52.704;13.814;2022-07-24T00:39:58;13.70;99.90
49242;DHT22;35079;52.704;13.814;2022-07-24T00:42:24;13.60;99.90
49242;DHT22;35079;52.704;13.814;2022-07-24T00:44:49;13.60;99.90
49242;DHT22;35079;52.704;13.814;2022-07-24T00:47:15;13.40;99.90
49242;DHT22;35079;52.704;13.814;2022-07-24T00:49:40;13.50;99.90
49242;DHT22;35079;52.704;13.814;2022-07-24T00:52:06;13.40;99.90
49242;DHT22;35079;52.704;13.814;2022-07-24T00:54:33;13.30;99.90
49242;DHT22;35079;52.704;13.814;2022-07-24T00:56:58;13.40;99.90
49242;DHT22;35079;52.704;13.814;2022-07-24T00:59:24;13.30;99.90
49242;DHT22;35079;52.704;13.814;2022-07-24T01:01:50;13.30;99.90
49242;DHT22;35079;52.704;13.814;2022-07-24T01:04:17;13.20;99.90
49242;DHT22;35079;52.704;13.814;2022-07-24T01:06:43;13.30;99.90
49242;DHT22;35079;52.704;13.814;2022-07-24T01:09:10;13.20;99.90
49242;DHT22;35079;52.704;13.814;2022-07-24T01:11:36;13.20;99.90
49242;DHT22;35079;52.704;13.814;2022-07-24T01:14:02;13.10;99.90
49242;DHT22;35079;52.704;13.814;2022-07-24T01:16:28;13.20;99.90
49242;DHT22;35079;52.704;13.814;2022-07-24T01:18:54;13.20;99.90
49242;DHT22;35079;52.704;13.814;2022-07-24T01:21:19;13.10;99.90
49242;DHT22;35079;52.704;13.814;2022-07-24T01:23:45;12.90;99.90
49242;DHT22;35079;52.704;13.814;2022-07-24T01:26:11;12.90;99.90
49242;DHT22;35079;52.704;13.814;2022-07-24T01:28:36;12.80;99.90
49242;DHT22;35079;52.704;13.814;2022-07-24T01:31:02;12.70;99.90
49242;DHT22;35079;52.704;13.814;2022-07-24T01:33:28;12.70;99.90
49242;DHT22;35079;52.704;13.814;2022-07-24T01:35:54;12.60;99.90
49242;DHT22;35079;52.704;13.814;2022-07-24T01:38:19;12.70;99.90
49242;DHT22;35079;52.704;13.814;2022-07-24T01:40:45;12.70;99.90
49242;DHT22;35079;52.704;13.814;2022-07-24T01:43:11;12.60;99.90
49242;DHT22;35079;52.704;13.814;2022-07-24T01:45:37;12.70;99.90
49242;DHT22;35079;52.704;13.814;2022-07-24T01:48:03;12.70;99.90
49242;DHT22;35079;52.704;13.814;2022-07-24T01:50:28;12.50;99.90
49242;DHT22;35079;52.704;13.814;2022-07-24T01:52:54;12.40;99.90
49242;DHT22;35079;52.704;13.814;2022-07-24T01:55:21;12.50;99.90
49242;DHT22;35079;52.704;13.814;2022-07-24T01:57:47;12.50;99.90
49242;DHT22;35079;52.704;13.814;2022-07-24T02:00:14;12.60;99.90
49242;DHT22;35079;52.704;13.814;2022-07-24T02:02:42;12.50;99.90
49242;DHT22;35079;52.704;13.814;2022-07-24T02:05:08;12.50;99.90
49242;DHT22;35079;52.704;13.814;2022-07-24T02:07:34;12.40;99.90
49242;DHT22;35079;52.704;13.814;2022-07-24T02:10:00;12.30;99.90
49242;DHT22;35079;52.704;13.814;2022-07-24T02:12:26;12.30;99.90
49242;DHT22;35079;52.704;13.814;2022-07-24T02:14:51;12.20;99.90
49242;DHT22;35079;52.704;13.814;2022-07-24T02:17:17;12.30;99.90
49242;DHT22;35079;52.704;13.814;2022-07-24T02:19:43;12.30;99.90
49242;DHT22;35079;52.704;13.814;2022-07-24T02:22:08;12.40;99.90
49242;DHT22;35079;52.704;13.814;2022-07-24T02:24:34;12.40;99.90
49242;DHT22;35079;52.704;13.814;2022-07-24T02:26:59;12.30;99.90
49242;DHT22;35079;52.704;13.814;2022-07-24T02:29:25;12.20;99.90
49242;DHT22;35079;52.704;13.814;2022-07-24T02:31:51;12.30;99.90
49242;DHT22;35079;52.704;13.814;2022-07-24T02:34:16;12.20;99.90
49242;DHT22;35079;52.704;13.814;2022-07-24T02:36:42;12.20;99.90
49242;DHT22;35079;52.704;13.814;2022-07-24T02:39:08;12.10;99.90
49242;DHT22;35079;52.704;13.814;2022-07-24T02:41:33;12.20;99.90
49242;DHT22;35079;52.704;13.814;2022-07-24T02:43:59;12.00;99.90
49242;DHT22;35079;52.704;13.814;2022-07-24T02:46:25;12.00;99.90
49242;DHT22;35079;52.704;13.814;2022-07-24T02:48:50;12.00;99.90
49242;DHT22;35079;52.704;13.814;2022-07-24T02:51:16;11.90;99.90
49242;DHT22;35079;52.704;13.814;2022-07-24T02:53:41;11.90;99.90
49242;DHT22;35079;52.704;13.814;2022-07-24T02:56:07;12.10;99.90
49242;DHT22;35079;52.704;13.814;2022-07-24T02:58:34;12.10;99.90
49242;DHT22;35079;52.704;13.814;2022-07-24T03:00:59;12.00;99.90
49242;DHT22;35079;52.704;13.814;2022-07-24T03:03:25;11.90;99.90
49242;DHT22;35079;52.704;13.814;2022-07-24T03:05:51;11.90;99.90
49242;DHT22;35079;52.704;13.814;2022-07-24T03:08:16;12.10;99.90
49242;DHT22;35079;52.704;13.814;2022-07-24T03:10:42;12.00;99.90
49242;DHT22;35079;52.704;13.814;2022-07-24T03:13:08;11.90;99.90
49242;DHT22;35079;52.704;13.814;2022-07-24T03:15:34;11.90;99.90
49242;DHT22;35079;52.704;13.814;2022-07-24T03:17:59;11.80;99.90
49242;DHT22;35079;52.704;13.814;2022-07-24T03:20:27;11.80;99.90
49242;DHT22;35079;52.704;13.814;2022-07-24T03:22:56;11.70;99.90
49242;DHT22;35079;52.704;13.814;2022-07-24T03:25:22;11.80;99.90
49242;DHT22;35079;52.704;13.814;2022-07-24T03:27:49;11.80;99.90
49242;DHT22;35079;52.704;13.814;2022-07-24T03:30:15;11.90;99.90
49242;DHT22;35079;52.704;13.814;2022-07-24T03:32:41;11.80;99.90
49242;DHT22;35079;52.704;13.814;2022-07-24T03:35:07;11.80;99.90
49242;DHT22;35079;52.704;13.814;2022-07-24T03:37:33;11.80;99.90
49242;DHT22;35079;52.704;13.814;2022-07-24T03:39:59;11.80;99.90
49242;DHT22;35079;52.704;13.814;2022-07-24T03:42:24;11.80;99.90
49242;DHT22;35079;52.704;13.814;2022-07-24T03:44:50;11.80;99.90
49242;DHT22;35079;52.704;13.814;2022-07-24T03:47:16;11.90;99.90
49242;DHT22;35079;52.704;13.814;2022-07-24T03:49:41;11.90;99.90
49242;DHT22;35079;52.704;13.814;2022-07-24T03:52:07;12.00;99.90
49242;DHT22;35079;52.704;13.814;2022-07-24T03:54:33;12.00;99.90
49242;DHT22;35079;52.704;13.814;2022-07-24T03:56:59;12.00;99.90
49242;DHT22;35079;52.704;13.814;2022-07-24T03:59:25;12.10;99.90
49242;DHT22;35079;52.704;13.814;2022-07-24T04:01:50;12.10;99.90
49242;DHT22;35079;52.704;13.814;2022-07-24T04:04:16;12.20;99.90
49242;DHT22;35079;52.704;13.814;2022-07-24T04:06:41;12.20;99.90
49242;DHT22;35079;52.704;13.814;2022-07-24T04:09:08;12.30;99.90
49242;DHT22;35079;52.704;13.814;2022-07-24T04:11:34;12.20;99.90
49242;DHT22;35079;52.704;13.814;2022-07-24T04:14:00;12.40;99.90
49242;DHT22;35079;52.704;13.814;2022-07-24T04:16:26;12.30;99.90
49242;DHT22;35079;52.704;13.814;2022-07-24T04:18:51;12.40;99.90
49242;DHT22;35079;52.704;13.814;2022-07-24T04:21:18;12.50;99.90
49242;DHT22;35079;52.704;13.814;2022-07-24T04:23:43;12.60;99.90
49242;DHT22;35079;52.704;13.814;2022-07-24T04:26:09;12.60;99.90
49242;DHT22;35079;52.704;13.814;2022-07-24T04:28:35;12.60;99.90
49242;DHT22;35079;52.704;13.814;2022-07-24T04:31:01;12.70;99.90
49242;DHT22;35079;52.704;13.814;2022-07-24T04:33:27;12.70;99.90
49242;DHT22;35079;52.704;13.814;2022-07-24T04:35:52;12.80;99.90
49242;DHT22;35079;52.704;13.814;2022-07-24T04:38:18;12.80;99.90
49242;DHT22;35079;52.704;13.814;2022-07-24T04:40:43;12.70;99.90
49242;DHT22;35079;52.704;13.814;2022-07-24T04:43:09;12.80;99.90
49242;DHT22;35079;52.704;13.814;2022-07-24T04:45:35;12.80;99.90
49242;DHT22;35079;52.704;13.814;2022-07-24T04:48:01;12.90;99.90
49242;DHT22;35079;52.704;13.814;2022-07-24T04:50:26;12.90;99.90
49242;DHT22;35079;52.704;13.814;2022-07-24T04:52:52;12.90;99.90
49242;DHT22;35079;52.704;13.814;2022-07-24T04:55:17;13.00;99.90
49242;DHT22;35079;52.704;13.814;2022-07-24T04:57:43;13.10;99.90
49242;DHT22;35079;52.704;13.814;2022-07-24T05:00:11;13.30;99.90
49242;DHT22;35079;52.704;13.814;2022-07-24T05:02:37;13.30;99.90
49242;DHT22;35079;52.704;13.814;2022-07-24T05:05:03;13.40;99.90
49242;DHT22;35079;52.704;13.814;2022-07-24T05:07:29;13.50;99.90
49242;DHT22;35079;52.704;13.814;2022-07-24T05:09:54;13.60;99.90
49242;DHT22;35079;52.704;13.814;2022-07-24T05:12:20;13.80;99.90
49242;DHT22;35079;52.704;13.814;2022-07-24T05:14:45;13.80;99.90
49242;DHT22;35079;52.704;13.814;2022-07-24T05:17:11;13.80;99.90
49242;DHT22;35079;52.704;13.814;2022-07-24T05:19:37;13.90;99.90
49242;DHT22;35079;52.704;13.814;2022-07-24T05:22:02;14.00;99.90
49242;DHT22;35079;52.704;13.814;2022-07-24T05:24:28;14.20;99.90
49242;DHT22;35079;52.704;13.814;2022-07-24T05:26:54;14.40;99.90
49242;DHT22;35079;52.704;13.814;2022-07-24T05:29:20;14.50;99.90
49242;DHT22;35079;52.704;13.814;2022-07-24T05:31:48;14.60;99.90
49242;DHT22;35079;52.704;13.814;2022-07-24T05:34:14;14.60;99.90
49242;DHT22;35079;52.704;13.814;2022-07-24T05:36:49;14.80;99.90
49242;DHT22;35079;52.704;13.814;2022-07-24T05:39:28;14.90;99.90
49242;DHT22;35079;52.704;13.814;2022-07-24T05:42:17;15.00;99.90
49242;DHT22;35079;52.704;13.814;2022-07-24T05:44:55;15.10;99.90
49242;DHT22;35079;52.704;13.814;2022-07-24T06:08:30;16.10;99.90
49242;DHT22;35079;52.704;13.814;2022-07-24T06:18:13;16.50;99.90
49242;DHT22;35079;52.704;13.814;2022-07-24T06:20:41;16.70;99.90
49242;DHT22;35079;52.704;13.814;2022-07-24T06:23:07;16.70;99.90
49242;DHT22;35079;52.704;13.814;2022-07-24T06:25:33;16.70;99.90
49242;DHT22;35079;52.704;13.814;2022-07-24T06:27:58;16.80;99.90
49242;DHT22;35079;52.704;13.814;2022-07-24T06:30:27;16.90;99.90
49242;DHT22;35079;52.704;13.814;2022-07-24T06:32:55;17.00;99.90
49242;DHT22;35079;52.704;13.814;2022-07-24T06:35:21;17.10;99.90
49242;DHT22;35079;52.704;13.814;2022-07-24T06:37:47;17.10;99.90
49242;DHT22;35079;52.704;13.814;2022-07-24T06:40:14;17.30;99.90
49242;DHT22;35079;52.704;13.814;2022-07-24T06:42:40;17.30;99.90
49242;DHT22;35079;52.704;13.814;2022-07-24T06:45:06;17.30;99.90
49242;DHT22;35079;52.704;13.814;2022-07-24T06:47:32;17.50;99.90
49242;DHT22;35079;52.704;13.814;2022-07-24T06:49:58;17.50;99.90
49242;DHT22;35079;52.704;13.814;2022-07-24T06:52:24;17.50;99.90
49242;DHT22;35079;52.704;13.814;2022-07-24T06:54:49;17.80;99.90
49242;DHT22;35079;52.704;13.814;2022-07-24T06:57:15;17.80;99.90
49242;DHT22;35079;52.704;13.814;2022-07-24T06:59:42;17.80;99.90
49242;DHT22;35079;52.704;13.814;2022-07-24T07:02:08;17.90;99.90
49242;DHT22;35079;52.704;13.814;2022-07-24T07:04:33;18.00;99.90
49242;DHT22;35079;52.704;13.814;2022-07-24T07:06:59;18.20;99.90
49242;DHT22;35079;52.704;13.814;2022-07-24T07:09:25;18.30;99.90
49242;DHT22;35079;52.704;13.814;2022-07-24T07:11:50;18.40;99.90
49242;DHT22;35079;52.704;13.814;2022-07-24T07:14:16;18.40;99.90
49242;DHT22;35079;52.704;13.814;2022-07-24T07:16:42;18.50;99.90
49242;DHT22;35079;52.704;13.814;2022-07-24T07:19:08;18.50;99.90
49242;DHT22;35079;52.704;13.814;2022-07-24T07:21:34;18.60;99.90
49242;DHT22;35079;52.704;13.814;2022-07-24T07:24:01;18.80;99.90
49242;DHT22;35079;52.704;13.814;2022-07-24T07:26:27;18.80;99.70
49242;DHT22;35079;52.704;13.814;2022-07-24T07:28:53;18.90;99.90
49242;DHT22;35079;52.704;13.814;2022-07-24T07:31:18;19.00;99.90
49242;DHT22;35079;52.704;13.814;2022-07-24T07:33:44;19.00;99.90
49242;DHT22;35079;52.704;13.814;2022-07-24T07:36:10;19.00;99.90
49242;DHT22;35079;52.704;13.814;2022-07-24T07:38:35;19.20;99.40
49242;DHT22;35079;52.704;13.814;2022-07-24T07:41:03;19.20;98.30
49242;DHT22;35079;52.704;13.814;2022-07-24T07:43:29;19.30;97.90
49242;DHT22;35079;52.704;13.814;2022-07-24T07:45:55;19.30;98.10
49242;DHT22;35079;52.704;13.814;2022-07-24T07:48:21;19.40;98.00
49242;DHT22;35079;52.704;13.814;2022-07-24T07:50:46;19.50;96.70
49242;DHT22;35079;52.704;13.814;2022-07-24T07:53:12;19.50;96.60
49242;DHT22;35079;52.704;13.814;2022-07-24T07:55:38;19.50;96.60
49242;DHT22;35079;52.704;13.814;2022-07-24T07:58:03;19.70;96.70
49242;DHT22;35079;52.704;13.814;2022-07-24T08:00:33;20.00;95.80
49242;DHT22;35079;52.704;13.814;2022-07-24T08:02:59;20.10;95.50
49242;DHT22;35079;52.704;13.814;2022-07-24T08:05:25;20.30;95.00
49242;DHT22;35079;52.704;13.814;2022-07-24T08:07:51;20.30;94.70
49242;DHT22;35079;52.704;13.814;2022-07-24T08:10:17;20.30;94.30
49242;DHT22;35079;52.704;13.814;2022-07-24T08:12:42;20.40;93.50
49242;DHT22;35079;52.704;13.814;2022-07-24T08:15:09;20.30;94.30
49242;DHT22;35079;52.704;13.814;2022-07-24T08:17:37;20.30;94.20
49242;DHT22;35079;52.704;13.814;2022-07-24T08:20:07;20.40;93.20
49242;DHT22;35079;52.704;13.814;2022-07-24T08:22:51;20.50;92.50
49242;DHT22;35079;52.704;13.814;2022-07-24T08:25:44;20.70;91.30
49242;DHT22;35079;52.704;13.814;2022-07-24T08:28:09;20.70;90.90
49242;DHT22;35079;52.704;13.814;2022-07-24T08:34:16;21.00;92.20
49242;DHT22;35079;52.704;13.814;2022-07-24T08:36:49;21.30;91.60
49242;DHT22;35079;52.704;13.814;2022-07-24T08:39:15;21.60;92.10
49242;DHT22;35079;52.704;13.814;2022-07-24T08:41:42;21.70;90.20
49242;DHT22;35079;52.704;13.814;2022-07-24T08:44:08;21.90;90.50
49242;DHT22;35079;52.704;13.814;2022-07-24T08:46:39;22.10;90.00
49242;DHT22;35079;52.704;13.814;2022-07-24T08:49:07;22.40;88.20
49242;DHT22;35079;52.704;13.814;2022-07-24T08:51:37;22.60;87.00
49242;DHT22;35079;52.704;13.814;2022-07-24T08:54:04;22.70;83.90
49242;DHT22;35079;52.704;13.814;2022-07-24T08:56:30;22.80;83.50
49242;DHT22;35079;52.704;13.814;2022-07-24T08:58:58;23.00;83.50
49242;DHT22;35079;52.704;13.814;2022-07-24T09:01:24;23.10;84.10
49242;DHT22;35079;52.704;13.814;2022-07-24T09:03:50;23.40;85.30
49242;DHT22;35079;52.704;13.814;2022-07-24T09:06:16;23.50;81.50
49242;DHT22;35079;52.704;13.814;2022-07-24T09:08:43;23.80;78.90
49242;DHT22;35079;52.704;13.814;2022-07-24T09:11:21;24.00;78.10
49242;DHT22;35079;52.704;13.814;2022-07-24T09:13:51;24.20;76.40
49242;DHT22;35079;52.704;13.814;2022-07-24T09:16:36;24.40;76.70
49242;DHT22;35079;52.704;13.814;2022-07-24T09:19:03;24.80;74.50
49242;DHT22;35079;52.704;13.814;2022-07-24T09:21:32;25.10;74.10
49242;DHT22;35079;52.704;13.814;2022-07-24T09:23:59;25.60;74.40
49242;DHT22;35079;52.704;13.814;2022-07-24T09:26:55;26.20;69.40
49242;DHT22;35079;52.704;13.814;2022-07-24T09:29:23;26.20;69.10
49242;DHT22;35079;52.704;13.814;2022-07-24T09:32:01;26.80;67.50
49242;DHT22;35079;52.704;13.814;2022-07-24T09:34:38;27.50;67.70
49242;DHT22;35079;52.704;13.814;2022-07-24T09:37:06;28.50;65.30
49242;DHT22;35079;52.704;13.814;2022-07-24T09:39:34;29.70;60.30
49242;DHT22;35079;52.704;13.814;2022-07-24T09:42:01;30.40;56.80
49242;DHT22;35079;52.704;13.814;2022-07-24T09:44:27;30.80;55.00
49242;DHT22;35079;52.704;13.814;2022-07-24T09:47:06;31.20;52.20
49242;DHT22;35079;52.704;13.814;2022-07-24T09:49:32;32.00;52.00
49242;DHT22;35079;52.704;13.814;2022-07-24T09:52:14;32.70;47.40
49242;DHT22;35079;52.704;13.814;2022-07-24T09:54:45;32.80;46.40
49242;DHT22;35079;52.704;13.814;2022-07-24T09:57:22;32.60;46.40
49242;DHT22;35079;52.704;13.814;2022-07-24T09:59:53;33.30;46.00
49242;DHT22;35079;52.704;13.814;2022-07-24T10:02:21;33.40;46.60
49242;DHT22;35079;52.704;13.814;2022-07-24T10:04:49;33.90;44.90
49242;DHT22;35079;52.704;13.814;2022-07-24T10:07:18;34.50;44.20
49242;DHT22;35079;52.704;13.814;2022-07-24T10:09:47;34.70;42.70
49242;DHT22;35079;52.704;13.814;2022-07-24T10:12:16;34.40;43.20
49242;DHT22;35079;52.704;13.814;2022-07-24T10:14:47;34.60;42.40
49242;DHT22;35079;52.704;13.814;2022-07-24T10:17:14;34.70;43.10
49242;DHT22;35079;52.704;13.814;2022-07-24T10:19:46;34.40;42.50
49242;DHT22;35079;52.704;13.814;2022-07-24T10:22:17;34.50;41.50
49242;DHT22;35079;52.704;13.814;2022-07-24T10:24:53;34.70;42.90
49242;DHT22;35079;52.704;13.814;2022-07-24T10:27:43;34.50;41.50
49242;DHT22;35079;52.704;13.814;2022-07-24T10:30:10;35.20;40.40
49242;DHT22;35079;52.704;13.814;2022-07-24T10:32:37;34.80;41.70
49242;DHT22;35079;52.704;13.814;2022-07-24T10:45:50;36.50;39.20
49242;DHT22;35079;52.704;13.814;2022-07-24T10:48:36;36.30;40.00
49242;DHT22;35079;52.704;13.814;2022-07-24T10:51:07;35.50;40.20
49242;DHT22;35079;52.704;13.814;2022-07-24T10:56:27;35.60;39.90
49242;DHT22;35079;52.704;13.814;2022-07-24T11:03:53;37.00;38.40
49242;DHT22;35079;52.704;13.814;2022-07-24T11:06:36;36.60;38.60
49242;DHT22;35079;52.704;13.814;2022-07-24T11:09:02;36.60;38.10
49242;DHT22;35079;52.704;13.814;2022-07-24T11:11:28;35.80;39.00
49242;DHT22;35079;52.704;13.814;2022-07-24T11:13:55;36.80;38.60
49242;DHT22;35079;52.704;13.814;2022-07-24T11:16:31;37.20;38.90
49242;DHT22;35079;52.704;13.814;2022-07-24T11:21:35;37.30;38.20
49242;DHT22;35079;52.704;13.814;2022-07-24T11:26:56;37.10;38.60
49242;DHT22;35079;52.704;13.814;2022-07-24T11:29:24;37.40;38.70
49242;DHT22;35079;52.704;13.814;2022-07-24T11:32:10;37.50;38.60
49242;DHT22;35079;52.704;13.814;2022-07-24T11:34:37;37.80;38.10
49242;DHT22;35079;52.704;13.814;2022-07-24T11:37:04;38.20;37.10
49242;DHT22;35079;52.704;13.814;2022-07-24T11:39:34;37.90;37.20
49242;DHT22;35079;52.704;13.814;2022-07-24T11:42:12;38.40;35.20
49242;DHT22;35079;52.704;13.814;2022-07-24T11:44:42;37.50;36.60
49242;DHT22;35079;52.704;13.814;2022-07-24T11:47:13;37.60;37.60
49242;DHT22;35079;52.704;13.814;2022-07-24T11:49:54;37.60;36.80
49242;DHT22;35079;52.704;13.814;2022-07-24T11:52:22;37.50;36.80
49242;DHT22;35079;52.704;13.814;2022-07-24T11:54:51;37.30;38.10
49242;DHT22;35079;52.704;13.814;2022-07-24T11:57:25;37.40;37.00
49242;DHT22;35079;52.704;13.814;2022-07-24T11:59:51;37.50;36.60
49242;DHT22;35079;52.704;13.814;2022-07-24T12:02:18;37.10;36.90
49242;DHT22;35079;52.704;13.814;2022-07-24T12:04:45;36.20;36.80
49242;DHT22;35079;52.704;13.814;2022-07-24T12:07:17;35.80;37.90
49242;DHT22;35079;52.704;13.814;2022-07-24T12:09:54;36.00;38.30
49242;DHT22;35079;52.704;13.814;2022-07-24T12:12:31;36.00;38.10
49242;DHT22;35079;52.704;13.814;2022-07-24T12:15:16;36.30;36.80
49242;DHT22;35079;52.704;13.814;2022-07-24T12:17:55;34.60;40.00
49242;DHT22;35079;52.704;13.814;2022-07-24T12:20:23;33.80;38.90
49242;DHT22;35079;52.704;13.814;2022-07-24T12:22:49;33.80;39.10
49242;DHT22;35079;52.704;13.814;2022-07-24T12:25:14;34.00;40.10
49242;DHT22;35079;52.704;13.814;2022-07-24T12:27:42;34.30;38.00
49242;DHT22;35079;52.704;13.814;2022-07-24T12:30:18;34.40;39.90
49242;DHT22;35079;52.704;13.814;2022-07-24T12:33:04;34.30;38.70
49242;DHT22;35079;52.704;13.814;2022-07-24T12:35:51;33.90;41.20
49242;DHT22;35079;52.704;13.814;2022-07-24T12:38:28;34.00;38.70
49242;DHT22;35079;52.704;13.814;2022-07-24T12:41:08;34.00;40.40
49242;DHT22;35079;52.704;13.814;2022-07-24T12:46:15;33.40;41.60
49242;DHT22;35079;52.704;13.814;2022-07-24T12:54:09;32.40;40.90
49242;DHT22;35079;52.704;13.814;2022-07-24T12:56:39;32.60;40.70
49242;DHT22;35079;52.704;13.814;2022-07-24T12:59:05;32.50;42.10
49242;DHT22;35079;52.704;13.814;2022-07-24T13:01:50;32.60;41.30
49242;DHT22;35079;52.704;13.814;2022-07-24T13:04:18;32.50;41.80
49242;DHT22;35079;52.704;13.814;2022-07-24T13:06:47;32.50;41.40
49242;DHT22;35079;52.704;13.814;2022-07-24T13:09:15;33.00;41.00
49242;DHT22;35079;52.704;13.814;2022-07-24T13:11:42;33.20;41.70
49242;DHT22;35079;52.704;13.814;2022-07-24T13:14:08;33.90;40.30
49242;DHT22;35079;52.704;13.814;2022-07-24T13:16:37;33.60;39.10
49242;DHT22;35079;52.704;13.814;2022-07-24T13:19:04;33.50;40.30
49242;DHT22;35079;52.704;13.814;2022-07-24T13:21:30;33.30;40.40
49242;DHT22;35079;52.704;13.814;2022-07-24T13:23:56;33.40;39.00
49242;DHT22;35079;52.704;13.814;2022-07-24T13:26:22;32.40;39.20
49242;DHT22;35079;52.704;13.814;2022-07-24T13:28:48;32.40;41.10
49242;DHT22;35079;52.704;13.814;2022-07-24T13:31:14;32.60;40.80
49242;DHT22;35079;52.704;13.814;2022-07-24T13:33:40;33.40;40.10
49242;DHT22;35079;52.704;13.814;2022-07-24T13:36:06;33.30;41.70
49242;DHT22;35079;52.704;13.814;2022-07-24T13:38:32;33.40;39.80
49242;DHT22;35079;52.704;13.814;2022-07-24T13:40:58;33.50;39.70
49242;DHT22;35079;52.704;13.814;2022-07-24T13:43:23;33.40;39.80
49242;DHT22;35079;52.704;13.814;2022-07-24T13:45:51;33.20;39.20
49242;DHT22;35079;52.704;13.814;2022-07-24T13:48:17;32.80;38.80
49242;DHT22;35079;52.704;13.814;2022-07-24T13:50:42;32.10;42.60
49242;DHT22;35079;52.704;13.814;2022-07-24T13:53:08;32.00;42.30
49242;DHT22;35079;52.704;13.814;2022-07-24T13:55:33;31.80;40.50
49242;DHT22;35079;52.704;13.814;2022-07-24T13:57:59;31.30;41.30
49242;DHT22;35079;52.704;13.814;2022-07-24T14:00:25;31.10;42.30
49242;DHT22;35079;52.704;13.814;2022-07-24T14:02:51;31.10;41.90
49242;DHT22;35079;52.704;13.814;2022-07-24T14:05:24;30.70;42.80
49242;DHT22;35079;52.704;13.814;2022-07-24T14:07:50;30.60;42.50
49242;DHT22;35079;52.704;13.814;2022-07-24T14:10:16;30.20;42.50
49242;DHT22;35079;52.704;13.814;2022-07-24T14:12:41;30.10;43.20
49242;DHT22;35079;52.704;13.814;2022-07-24T14:15:07;30.10;43.50
49242;DHT22;35079;52.704;13.814;2022-07-24T14:17:38;30.00;43.60
49242;DHT22;35079;52.704;13.814;2022-07-24T14:20:04;30.00;43.10
49242;DHT22;35079;52.704;13.814;2022-07-24T14:22:30;29.90;43.50
49242;DHT22;35079;52.704;13.814;2022-07-24T14:24:55;29.80;44.40
49242;DHT22;35079;52.704;13.814;2022-07-24T14:27:21;29.60;45.00
49242;DHT22;35079;52.704;13.814;2022-07-24T14:29:46;29.80;44.30
49242;DHT22;35079;52.704;13.814;2022-07-24T14:32:12;29.60;44.50
49242;DHT22;35079;52.704;13.814;2022-07-24T14:34:37;29.50;43.40
49242;DHT22;35079;52.704;13.814;2022-07-24T14:37:03;29.60;43.30
49242;DHT22;35079;52.704;13.814;2022-07-24T14:39:29;29.30;44.20
49242;DHT22;35079;52.704;13.814;2022-07-24T14:41:59;29.40;45.10
49242;DHT22;35079;52.704;13.814;2022-07-24T14:44:24;29.70;43.80
49242;DHT22;35079;52.704;13.814;2022-07-24T14:46:50;29.90;44.60
49242;DHT22;35079;52.704;13.814;2022-07-24T14:49:15;30.60;44.50
49242;DHT22;35079;52.704;13.814;2022-07-24T14:51:41;31.50;42.30
49242;DHT22;35079;52.704;13.814;2022-07-24T14:54:07;31.60;40.90
49242;DHT22;35079;52.704;13.814;2022-07-24T14:56:34;31.40;42.30
49242;DHT22;35079;52.704;13.814;2022-07-24T14:59:00;31.40;41.50
49242;DHT22;35079;52.704;13.814;2022-07-24T15:01:26;30.90;41.90
49242;DHT22;35079;52.704;13.814;2022-07-24T15:03:52;30.40;41.00
49242;DHT22;35079;52.704;13.814;2022-07-24T15:06:17;29.50;42.50
49242;DHT22;35079;52.704;13.814;2022-07-24T15:08:43;29.30;42.70
49242;DHT22;35079;52.704;13.814;2022-07-24T15:11:09;29.00;44.90
49242;DHT22;35079;52.704;13.814;2022-07-24T15:13:34;28.80;46.00
49242;DHT22;35079;52.704;13.814;2022-07-24T15:16:08;28.70;45.30
49242;DHT22;35079;52.704;13.814;2022-07-24T15:18:34;28.50;45.70
49242;DHT22;35079;52.704;13.814;2022-07-24T15:21:00;28.60;45.00
49242;DHT22;35079;52.704;13.814;2022-07-24T15:23:26;28.60;45.80
49242;DHT22;35079;52.704;13.814;2022-07-24T15:25:52;28.40;46.40
49242;DHT22;35079;52.704;13.814;2022-07-24T15:28:19;28.40;45.60
49242;DHT22;35079;52.704;13.814;2022-07-24T15:30:45;28.30;46.50
49242;DHT22;35079;52.704;13.814;2022-07-24T15:33:11;28.20;46.60
49242;DHT22;35079;52.704;13.814;2022-07-24T15:35:36;28.20;45.90
49242;DHT22;35079;52.704;13.814;2022-07-24T15:38:02;28.10;45.90
49242;DHT22;35079;52.704;13.814;2022-07-24T15:40:28;27.90;45.80
49242;DHT22;35079;52.704;13.814;2022-07-24T15:42:56;27.70;47.70
49242;DHT22;35079;52.704;13.814;2022-07-24T15:45:22;27.60;49.50
49242;DHT22;35079;52.704;13.814;2022-07-24T15:47:48;27.60;48.00
49242;DHT22;35079;52.704;13.814;2022-07-24T15:50:14;27.30;48.20
49242;DHT22;35079;52.704;13.814;2022-07-24T15:52:39;27.30;47.80
49242;DHT22;35079;52.704;13.814;2022-07-24T15:55:05;27.20;48.80
49242;DHT22;35079;52.704;13.814;2022-07-24T15:57:32;27.10;49.40
49242;DHT22;35079;52.704;13.814;2022-07-24T15:59:58;27.20;49.20
49242;DHT22;35079;52.704;13.814;2022-07-24T16:02:23;27.10;49.80
49242;DHT22;35079;52.704;13.814;2022-07-24T16:04:50;27.20;50.00
49242;DHT22;35079;52.704;13.814;2022-07-24T16:07:15;27.10;49.00
49242;DHT22;35079;52.704;13.814;2022-07-24T16:09:42;27.20;48.90
49242;DHT22;35079;52.704;13.814;2022-07-24T16:12:08;27.20;49.70
49242;DHT22;35079;52.704;13.814;2022-07-24T16:14:34;27.20;48.10
49242;DHT22;35079;52.704;13.814;2022-07-24T16:17:00;27.30;46.70
49242;DHT22;35079;52.704;13.814;2022-07-24T16:19:26;27.10;46.60
49242;DHT22;35079;52.704;13.814;2022-07-24T16:21:52;27.00;47.80